sensor_id;sensor_type;location;lat;lon;timestamp;P1;durP1;ratioP1;P2;durP2;ratioP2
41139;SDS011;26881;48.784;9.192;2022-08-14T00:01:13;6.78;;;2.90;;
41139;SDS011;26881;48.784;9.192;2022-08-14T00:06:44;5.20;;;3.47;;
41139;SDS011;26881;48.784;9.192;2022-08-14T00:12:07;4.78;;;3.63;;
41139;SDS011;26881;48.784;9.192;2022-08-14T00:17:45;6.18;;;2.60;;
41139;SDS011;26881;48.784;9.192;2022-08-14T00:23:15;4.57;;;3.38;;
41139;SDS011;26881;48.784;9.192;2022-08-14T00:28:38;4.65;;;2.80;;
41139;SDS011;26881;48.784;9.192;2022-08-14T00:34:00;2.97;;;2.67;;
41139;SDS011;26881;48.784;9.192;2022-08-14T00:39:42;5.63;;;3.10;;
41139;SDS011;26881;48.784;9.192;2022-08-14T00:45:05;4.22;;;3.00;;
41139;SDS011;26881;48.784;9.192;2022-08-14T00:50:32;3.80;;;3.05;;
41139;SDS011;26881;48.784;9.192;2022-08-14T00:55:58;2.75;;;2.30;;
41139;SDS011;26881;48.784;9.192;2022-08-14T01:01:20;3.35;;;2.10;;
41139;SDS011;26881;48.784;9.192;2022-08-14T01:06:42;2.55;;;2.35;;
41139;SDS011;26881;48.784;9.192;2022-08-14T01:12:04;4.72;;;2.67;;
41139;SDS011;26881;48.784;9.192;2022-08-14T01:17:29;3.45;;;2.30;;
41139;SDS011;26881;48.784;9.192;2022-08-14T01:23:20;2.50;;;2.30;;
41139;SDS011;26881;48.784;9.192;2022-08-14T01:28:42;3.15;;;2.85;;
41139;SDS011;26881;48.784;9.192;2022-08-14T01:34:18;5.60;;;2.40;;
41139;SDS011;26881;48.784;9.192;2022-08-14T01:40:00;5.10;;;2.40;;
41139;SDS011;26881;48.784;9.192;2022-08-14T01:45:23;5.20;;;2.65;;
41139;SDS011;26881;48.784;9.192;2022-08-14T01:50:46;2.40;;;2.30;;
41139;SDS011;26881;48.784;9.192;2022-08-14T01:56:08;3.72;;;2.58;;
41139;SDS011;26881;48.784;9.192;2022-08-14T02:01:50;4.47;;;2.67;;
41139;SDS011;26881;48.784;9.192;2022-08-14T02:07:19;3.08;;;2.50;;
41139;SDS011;26881;48.784;9.192;2022-08-14T02:13:04;5.82;;;2.83;;
41139;SDS011;26881;48.784;9.192;2022-08-14T02:18:29;2.88;;;2.67;;
41139;SDS011;26881;48.784;9.192;2022-08-14T02:23:53;2.90;;;2.60;;
41139;SDS011;26881;48.784;9.192;2022-08-14T02:29:19;3.25;;;2.55;;
41139;SDS011;26881;48.784;9.192;2022-08-14T02:34:44;3.20;;;2.88;;
41139;SDS011;26881;48.784;9.192;2022-08-14T02:40:06;2.85;;;2.30;;
41139;SDS011;26881;48.784;9.192;2022-08-14T02:45:29;3.40;;;2.20;;
41139;SDS011;26881;48.784;9.192;2022-08-14T02:51:11;2.33;;;2.17;;
41139;SDS011;26881;48.784;9.192;2022-08-14T02:56:35;4.70;;;2.83;;
41139;SDS011;26881;48.784;9.192;2022-08-14T03:02:18;5.00;;;2.63;;
41139;SDS011;26881;48.784;9.192;2022-08-14T03:08:04;4.28;;;2.60;;
41139;SDS011;26881;48.784;9.192;2022-08-14T03:13:47;5.43;;;2.70;;
41139;SDS011;26881;48.784;9.192;2022-08-14T03:19:12;4.15;;;2.58;;
41139;SDS011;26881;48.784;9.192;2022-08-14T03:24:34;6.45;;;3.05;;
41139;SDS011;26881;48.784;9.192;2022-08-14T03:29:59;5.47;;;2.58;;
41139;SDS011;26881;48.784;9.192;2022-08-14T03:35:26;3.72;;;2.70;;
41139;SDS011;26881;48.784;9.192;2022-08-14T03:41:00;3.85;;;2.85;;
41139;SDS011;26881;48.784;9.192;2022-08-14T03:46:23;4.65;;;2.88;;
41139;SDS011;26881;48.784;9.192;2022-08-14T03:52:08;2.60;;;2.40;;
41139;SDS011;26881;48.784;9.192;2022-08-14T03:57:51;3.10;;;2.38;;
41139;SDS011;26881;48.784;9.192;2022-08-14T04:03:13;5.38;;;2.70;;
41139;SDS011;26881;48.784;9.192;2022-08-14T04:08:44;4.57;;;2.90;;
41139;SDS011;26881;48.784;9.192;2022-08-14T04:14:06;4.78;;;2.70;;
41139;SDS011;26881;48.784;9.192;2022-08-14T04:19:28;4.55;;;2.80;;
41139;SDS011;26881;48.784;9.192;2022-08-14T04:24:57;9.45;;;2.60;;
41139;SDS011;26881;48.784;9.192;2022-08-14T04:30:25;3.40;;;3.10;;
41139;SDS011;26881;48.784;9.192;2022-08-14T04:35:54;3.38;;;2.80;;
41139;SDS011;26881;48.784;9.192;2022-08-14T04:41:17;4.03;;;2.90;;
41139;SDS011;26881;48.784;9.192;2022-08-14T04:47:03;5.55;;;3.30;;
41139;SDS011;26881;48.784;9.192;2022-08-14T04:52:44;4.97;;;2.40;;
41139;SDS011;26881;48.784;9.192;2022-08-14T04:58:16;4.53;;;2.85;;
41139;SDS011;26881;48.784;9.192;2022-08-14T05:03:52;6.45;;;2.90;;
41139;SDS011;26881;48.784;9.192;2022-08-14T05:09:17;7.40;;;3.20;;
41139;SDS011;26881;48.784;9.192;2022-08-14T05:14:42;5.20;;;3.13;;
41139;SDS011;26881;48.784;9.192;2022-08-14T05:20:14;6.70;;;2.65;;
41139;SDS011;26881;48.784;9.192;2022-08-14T05:25:56;6.00;;;2.78;;
41139;SDS011;26881;48.784;9.192;2022-08-14T05:31:23;6.55;;;3.20;;
41139;SDS011;26881;48.784;9.192;2022-08-14T05:37:00;4.82;;;3.20;;
41139;SDS011;26881;48.784;9.192;2022-08-14T05:42:23;3.53;;;2.70;;
41139;SDS011;26881;48.784;9.192;2022-08-14T05:47:50;2.90;;;2.70;;
41139;SDS011;26881;48.784;9.192;2022-08-14T05:53:12;3.60;;;2.95;;
41139;SDS011;26881;48.784;9.192;2022-08-14T05:58:35;3.35;;;2.70;;
41139;SDS011;26881;48.784;9.192;2022-08-14T06:04:02;4.63;;;3.15;;
41139;SDS011;26881;48.784;9.192;2022-08-14T06:09:25;6.00;;;3.35;;
41139;SDS011;26881;48.784;9.192;2022-08-14T06:14:47;5.43;;;3.03;;
41139;SDS011;26881;48.784;9.192;2022-08-14T06:20:09;3.40;;;2.92;;
41139;SDS011;26881;48.784;9.192;2022-08-14T06:25:32;6.10;;;3.58;;
41139;SDS011;26881;48.784;9.192;2022-08-14T06:30:56;7.38;;;3.20;;
41139;SDS011;26881;48.784;9.192;2022-08-14T06:36:18;3.15;;;2.63;;
41139;SDS011;26881;48.784;9.192;2022-08-14T06:41:40;4.47;;;2.75;;
41139;SDS011;26881;48.784;9.192;2022-08-14T06:47:20;2.80;;;2.60;;
41139;SDS011;26881;48.784;9.192;2022-08-14T06:52:44;9.88;;;2.97;;
41139;SDS011;26881;48.784;9.192;2022-08-14T06:58:14;3.92;;;2.67;;
41139;SDS011;26881;48.784;9.192;2022-08-14T07:03:50;4.28;;;2.90;;
41139;SDS011;26881;48.784;9.192;2022-08-14T07:09:43;6.07;;;2.90;;
41139;SDS011;26881;48.784;9.192;2022-08-14T07:15:11;4.85;;;2.65;;
41139;SDS011;26881;48.784;9.192;2022-08-14T07:20:34;3.58;;;2.72;;
41139;SDS011;26881;48.784;9.192;2022-08-14T07:25:56;4.28;;;2.80;;
41139;SDS011;26881;48.784;9.192;2022-08-14T07:31:19;3.10;;;2.75;;
41139;SDS011;26881;48.784;9.192;2022-08-14T07:36:42;4.07;;;2.65;;
41139;SDS011;26881;48.784;9.192;2022-08-14T07:42:21;2.40;;;2.20;;
41139;SDS011;26881;48.784;9.192;2022-08-14T07:47:44;4.55;;;2.47;;
41139;SDS011;26881;48.784;9.192;2022-08-14T07:53:07;5.78;;;2.10;;
41139;SDS011;26881;48.784;9.192;2022-08-14T07:58:29;5.13;;;2.20;;
41139;SDS011;26881;48.784;9.192;2022-08-14T08:04:00;4.22;;;2.10;;
41139;SDS011;26881;48.784;9.192;2022-08-14T08:09:24;4.72;;;2.22;;
41139;SDS011;26881;48.784;9.192;2022-08-14T08:14:53;3.92;;;2.17;;
41139;SDS011;26881;48.784;9.192;2022-08-14T08:20:28;3.63;;;2.08;;
41139;SDS011;26881;48.784;9.192;2022-08-14T08:25:50;2.38;;;2.17;;
41139;SDS011;26881;48.784;9.192;2022-08-14T08:31:12;2.40;;;2.17;;
41139;SDS011;26881;48.784;9.192;2022-08-14T08:36:40;3.10;;;2.05;;
41139;SDS011;26881;48.784;9.192;2022-08-14T08:42:07;2.20;;;2.10;;
41139;SDS011;26881;48.784;9.192;2022-08-14T08:47:39;2.50;;;2.28;;
41139;SDS011;26881;48.784;9.192;2022-08-14T08:53:05;2.20;;;2.05;;
41139;SDS011;26881;48.784;9.192;2022-08-14T08:58:29;3.47;;;2.20;;
41139;SDS011;26881;48.784;9.192;2022-08-14T09:03:51;2.40;;;2.20;;
41139;SDS011;26881;48.784;9.192;2022-08-14T09:09:26;2.13;;;2.00;;
41139;SDS011;26881;48.784;9.192;2022-08-14T09:14:54;2.92;;;2.10;;
41139;SDS011;26881;48.784;9.192;2022-08-14T09:20:17;5.32;;;2.20;;
41139;SDS011;26881;48.784;9.192;2022-08-14T09:25:51;5.57;;;3.05;;
41139;SDS011;26881;48.784;9.192;2022-08-14T09:31:22;2.30;;;2.10;;
41139;SDS011;26881;48.784;9.192;2022-08-14T09:36:48;3.85;;;2.00;;
41139;SDS011;26881;48.784;9.192;2022-08-14T09:48:14;2.10;;;1.90;;
41139;SDS011;26881;48.784;9.192;2022-08-14T09:53:47;1.80;;;1.70;;
41139;SDS011;26881;48.784;9.192;2022-08-14T09:59:40;3.47;;;2.10;;
41139;SDS011;26881;48.784;9.192;2022-08-14T10:05:04;4.43;;;2.25;;
41139;SDS011;26881;48.784;9.192;2022-08-14T10:10:35;4.28;;;1.75;;
41139;SDS011;26881;48.784;9.192;2022-08-14T10:16:00;3.15;;;2.15;;
41139;SDS011;26881;48.784;9.192;2022-08-14T10:21:22;2.30;;;2.10;;
41139;SDS011;26881;48.784;9.192;2022-08-14T10:26:51;4.40;;;2.05;;
41139;SDS011;26881;48.784;9.192;2022-08-14T10:32:21;2.08;;;1.90;;
41139;SDS011;26881;48.784;9.192;2022-08-14T10:38:00;4.07;;;2.13;;
41139;SDS011;26881;48.784;9.192;2022-08-14T10:43:27;2.70;;;2.10;;
41139;SDS011;26881;48.784;9.192;2022-08-14T10:48:56;2.20;;;2.00;;
41139;SDS011;26881;48.784;9.192;2022-08-14T10:54:32;3.45;;;2.40;;
41139;SDS011;26881;48.784;9.192;2022-08-14T11:00:10;4.85;;;2.20;;
41139;SDS011;26881;48.784;9.192;2022-08-14T11:05:42;4.57;;;2.00;;
41139;SDS011;26881;48.784;9.192;2022-08-14T11:11:06;2.53;;;2.00;;
41139;SDS011;26881;48.784;9.192;2022-08-14T11:16:29;2.55;;;2.20;;
41139;SDS011;26881;48.784;9.192;2022-08-14T11:21:51;2.65;;;2.10;;
41139;SDS011;26881;48.784;9.192;2022-08-14T11:27:16;3.10;;;2.30;;
41139;SDS011;26881;48.784;9.192;2022-08-14T11:32:43;5.78;;;2.80;;
41139;SDS011;26881;48.784;9.192;2022-08-14T11:38:08;2.63;;;2.15;;
41139;SDS011;26881;48.784;9.192;2022-08-14T11:43:43;3.17;;;2.10;;
41139;SDS011;26881;48.784;9.192;2022-08-14T11:49:25;7.05;;;2.22;;
41139;SDS011;26881;48.784;9.192;2022-08-14T11:54:56;2.17;;;1.98;;
41139;SDS011;26881;48.784;9.192;2022-08-14T12:00:19;3.47;;;2.25;;
41139;SDS011;26881;48.784;9.192;2022-08-14T12:05:52;3.10;;;2.22;;
41139;SDS011;26881;48.784;9.192;2022-08-14T12:11:35;2.33;;;1.90;;
41139;SDS011;26881;48.784;9.192;2022-08-14T12:17:05;2.72;;;2.30;;
41139;SDS011;26881;48.784;9.192;2022-08-14T12:22:41;3.97;;;2.20;;
41139;SDS011;26881;48.784;9.192;2022-08-14T12:28:09;2.97;;;2.40;;
41139;SDS011;26881;48.784;9.192;2022-08-14T12:33:56;8.23;;;3.33;;
41139;SDS011;26881;48.784;9.192;2022-08-14T12:39:20;2.78;;;2.08;;
41139;SDS011;26881;48.784;9.192;2022-08-14T12:44:47;4.70;;;2.30;;
41139;SDS011;26881;48.784;9.192;2022-08-14T12:50:09;2.00;;;1.90;;
41139;SDS011;26881;48.784;9.192;2022-08-14T12:55:31;2.20;;;1.70;;
41139;SDS011;26881;48.784;9.192;2022-08-14T13:01:23;2.00;;;1.80;;
41139;SDS011;26881;48.784;9.192;2022-08-14T13:06:47;1.70;;;1.60;;
41139;SDS011;26881;48.784;9.192;2022-08-14T13:12:12;2.28;;;1.70;;
41139;SDS011;26881;48.784;9.192;2022-08-14T13:17:57;2.03;;;1.90;;
41139;SDS011;26881;48.784;9.192;2022-08-14T13:23:22;1.45;;;1.35;;
41139;SDS011;26881;48.784;9.192;2022-08-14T13:28:52;2.80;;;1.77;;
41139;SDS011;26881;48.784;9.192;2022-08-14T13:34:25;5.95;;;3.30;;
41139;SDS011;26881;48.784;9.192;2022-08-14T13:39:48;2.30;;;2.10;;
41139;SDS011;26881;48.784;9.192;2022-08-14T13:45:18;1.63;;;1.52;;
41139;SDS011;26881;48.784;9.192;2022-08-14T13:50:43;1.90;;;1.80;;
41139;SDS011;26881;48.784;9.192;2022-08-14T13:56:10;2.08;;;1.52;;
41139;SDS011;26881;48.784;9.192;2022-08-14T14:01:46;1.33;;;1.23;;
41139;SDS011;26881;48.784;9.192;2022-08-14T14:07:13;4.25;;;1.40;;
41139;SDS011;26881;48.784;9.192;2022-08-14T14:12:36;1.25;;;1.15;;
41139;SDS011;26881;48.784;9.192;2022-08-14T14:18:02;3.47;;;1.30;;
41139;SDS011;26881;48.784;9.192;2022-08-14T14:23:24;1.30;;;1.20;;
41139;SDS011;26881;48.784;9.192;2022-08-14T14:28:47;1.05;;;1.05;;
41139;SDS011;26881;48.784;9.192;2022-08-14T14:34:11;1.35;;;1.30;;
41139;SDS011;26881;48.784;9.192;2022-08-14T14:39:50;3.75;;;1.10;;
41139;SDS011;26881;48.784;9.192;2022-08-14T14:45:33;1.40;;;1.30;;
41139;SDS011;26881;48.784;9.192;2022-08-14T14:50:58;1.58;;;1.42;;
41139;SDS011;26881;48.784;9.192;2022-08-14T14:56:22;1.40;;;1.30;;
41139;SDS011;26881;48.784;9.192;2022-08-14T15:02:06;2.35;;;1.45;;
41139;SDS011;26881;48.784;9.192;2022-08-14T15:07:30;2.67;;;1.63;;
41139;SDS011;26881;48.784;9.192;2022-08-14T15:12:53;1.88;;;1.77;;
41139;SDS011;26881;48.784;9.192;2022-08-14T15:18:18;1.70;;;1.60;;
41139;SDS011;26881;48.784;9.192;2022-08-14T15:24:00;1.90;;;1.80;;
41139;SDS011;26881;48.784;9.192;2022-08-14T15:29:25;2.90;;;1.40;;
41139;SDS011;26881;48.784;9.192;2022-08-14T15:34:48;3.55;;;2.20;;
41139;SDS011;26881;48.784;9.192;2022-08-14T15:40:13;1.95;;;1.80;;
41139;SDS011;26881;48.784;9.192;2022-08-14T15:45:43;1.70;;;1.48;;
41139;SDS011;26881;48.784;9.192;2022-08-14T15:51:04;1.50;;;1.40;;
41139;SDS011;26881;48.784;9.192;2022-08-14T15:56:30;5.93;;;1.70;;
41139;SDS011;26881;48.784;9.192;2022-08-14T16:02:03;4.32;;;1.70;;
41139;SDS011;26881;48.784;9.192;2022-08-14T16:07:29;1.75;;;1.50;;
41139;SDS011;26881;48.784;9.192;2022-08-14T16:12:51;1.70;;;1.60;;
41139;SDS011;26881;48.784;9.192;2022-08-14T16:18:15;1.70;;;1.60;;
41139;SDS011;26881;48.784;9.192;2022-08-14T16:23:39;2.38;;;2.15;;
41139;SDS011;26881;48.784;9.192;2022-08-14T16:29:04;1.67;;;1.58;;
41139;SDS011;26881;48.784;9.192;2022-08-14T16:34:29;2.70;;;2.35;;
41139;SDS011;26881;48.784;9.192;2022-08-14T16:40:06;4.18;;;2.45;;
41139;SDS011;26881;48.784;9.192;2022-08-14T16:45:31;4.38;;;3.28;;
41139;SDS011;26881;48.784;9.192;2022-08-14T16:50:54;2.42;;;1.77;;
41139;SDS011;26881;48.784;9.192;2022-08-14T16:56:21;2.55;;;2.25;;
41139;SDS011;26881;48.784;9.192;2022-08-14T17:01:53;3.92;;;2.40;;
41139;SDS011;26881;48.784;9.192;2022-08-14T17:07:25;2.63;;;1.90;;
41139;SDS011;26881;48.784;9.192;2022-08-14T17:12:47;3.53;;;1.73;;
41139;SDS011;26881;48.784;9.192;2022-08-14T17:18:10;2.55;;;2.05;;
41139;SDS011;26881;48.784;9.192;2022-08-14T17:23:42;2.95;;;2.00;;
41139;SDS011;26881;48.784;9.192;2022-08-14T17:34:50;2.63;;;2.10;;
41139;SDS011;26881;48.784;9.192;2022-08-14T17:40:17;2.58;;;2.25;;
41139;SDS011;26881;48.784;9.192;2022-08-14T17:45:41;3.70;;;3.40;;
41139;SDS011;26881;48.784;9.192;2022-08-14T17:51:07;1.77;;;1.67;;
41139;SDS011;26881;48.784;9.192;2022-08-14T17:56:32;3.60;;;1.50;;
41139;SDS011;26881;48.784;9.192;2022-08-14T18:01:59;2.33;;;2.13;;
41139;SDS011;26881;48.784;9.192;2022-08-14T18:07:22;3.05;;;1.80;;
41139;SDS011;26881;48.784;9.192;2022-08-14T18:13:04;2.45;;;2.03;;
41139;SDS011;26881;48.784;9.192;2022-08-14T18:18:31;2.88;;;1.80;;
41139;SDS011;26881;48.784;9.192;2022-08-14T18:23:53;1.80;;;1.70;;
41139;SDS011;26881;48.784;9.192;2022-08-14T18:29:15;3.75;;;1.90;;
41139;SDS011;26881;48.784;9.192;2022-08-14T18:34:39;4.20;;;1.92;;
41139;SDS011;26881;48.784;9.192;2022-08-14T18:45:39;1.95;;;1.85;;
41139;SDS011;26881;48.784;9.192;2022-08-14T18:51:23;2.58;;;1.90;;
41139;SDS011;26881;48.784;9.192;2022-08-14T18:57:06;2.92;;;2.13;;
41139;SDS011;26881;48.784;9.192;2022-08-14T19:02:42;2.60;;;1.75;;
41139;SDS011;26881;48.784;9.192;2022-08-14T19:13:45;2.17;;;2.00;;
41139;SDS011;26881;48.784;9.192;2022-08-14T19:19:12;5.28;;;1.70;;
41139;SDS011;26881;48.784;9.192;2022-08-14T19:24:40;4.13;;;1.63;;
41139;SDS011;26881;48.784;9.192;2022-08-14T19:35:42;1.67;;;1.58;;
41139;SDS011;26881;48.784;9.192;2022-08-14T19:41:24;3.65;;;1.92;;
41139;SDS011;26881;48.784;9.192;2022-08-14T19:46:54;4.10;;;1.95;;
41139;SDS011;26881;48.784;9.192;2022-08-14T19:57:59;3.80;;;2.05;;
41139;SDS011;26881;48.784;9.192;2022-08-14T20:03:21;10.15;;;2.50;;
41139;SDS011;26881;48.784;9.192;2022-08-14T20:08:45;2.97;;;2.30;;
41139;SDS011;26881;48.784;9.192;2022-08-14T20:14:28;5.03;;;2.33;;
41139;SDS011;26881;48.784;9.192;2022-08-14T20:19:52;6.85;;;2.50;;
41139;SDS011;26881;48.784;9.192;2022-08-14T20:25:15;4.97;;;2.28;;
41139;SDS011;26881;48.784;9.192;2022-08-14T20:30:42;5.30;;;2.13;;
41139;SDS011;26881;48.784;9.192;2022-08-14T20:36:10;6.80;;;2.60;;
41139;SDS011;26881;48.784;9.192;2022-08-14T20:41:46;3.85;;;2.47;;
41139;SDS011;26881;48.784;9.192;2022-08-14T20:47:15;4.15;;;2.45;;
41139;SDS011;26881;48.784;9.192;2022-08-14T20:52:37;3.40;;;2.47;;
41139;SDS011;26881;48.784;9.192;2022-08-14T20:58:04;5.65;;;2.80;;
41139;SDS011;26881;48.784;9.192;2022-08-14T21:03:48;3.65;;;2.85;;
41139;SDS011;26881;48.784;9.192;2022-08-14T21:09:19;3.25;;;2.95;;
41139;SDS011;26881;48.784;9.192;2022-08-14T21:15:07;4.45;;;2.92;;
41139;SDS011;26881;48.784;9.192;2022-08-14T21:20:34;4.25;;;2.38;;
41139;SDS011;26881;48.784;9.192;2022-08-14T21:26:00;7.07;;;2.53;;
41139;SDS011;26881;48.784;9.192;2022-08-14T21:31:26;5.03;;;2.55;;
41139;SDS011;26881;48.784;9.192;2022-08-14T21:36:51;3.70;;;2.30;;
41139;SDS011;26881;48.784;9.192;2022-08-14T21:42:14;3.67;;;2.40;;
41139;SDS011;26881;48.784;9.192;2022-08-14T21:47:38;4.72;;;3.03;;
41139;SDS011;26881;48.784;9.192;2022-08-14T21:53:03;3.90;;;2.40;;
41139;SDS011;26881;48.784;9.192;2022-08-14T21:58:27;4.10;;;2.50;;
41139;SDS011;26881;48.784;9.192;2022-08-14T22:04:10;4.07;;;2.40;;
41139;SDS011;26881;48.784;9.192;2022-08-14T22:09:52;3.15;;;2.58;;
41139;SDS011;26881;48.784;9.192;2022-08-14T22:15:16;7.07;;;2.85;;
41139;SDS011;26881;48.784;9.192;2022-08-14T22:20:40;4.95;;;2.40;;
41139;SDS011;26881;48.784;9.192;2022-08-14T22:26:02;4.88;;;2.95;;
41139;SDS011;26881;48.784;9.192;2022-08-14T22:31:25;4.30;;;2.85;;
41139;SDS011;26881;48.784;9.192;2022-08-14T22:36:59;3.17;;;2.67;;
41139;SDS011;26881;48.784;9.192;2022-08-14T22:42:22;6.45;;;2.50;;
41139;SDS011;26881;48.784;9.192;2022-08-14T22:47:43;6.57;;;2.65;;
41139;SDS011;26881;48.784;9.192;2022-08-14T22:53:07;7.38;;;2.85;;
41139;SDS011;26881;48.784;9.192;2022-08-14T22:58:30;4.88;;;2.97;;
41139;SDS011;26881;48.784;9.192;2022-08-14T23:03:55;3.90;;;2.50;;
41139;SDS011;26881;48.784;9.192;2022-08-14T23:09:18;5.68;;;2.95;;
41139;SDS011;26881;48.784;9.192;2022-08-14T23:14:58;5.18;;;2.78;;
41139;SDS011;26881;48.784;9.192;2022-08-14T23:20:21;6.47;;;2.65;;
41139;SDS011;26881;48.784;9.192;2022-08-14T23:25:49;4.25;;;2.55;;
41139;SDS011;26881;48.784;9.192;2022-08-14T23:31:21;4.68;;;2.33;;
41139;SDS011;26881;48.784;9.192;2022-08-14T23:36:56;4.30;;;2.67;;
41139;SDS011;26881;48.784;9.192;2022-08-14T23:42:18;7.18;;;2.78;;
41139;SDS011;26881;48.784;9.192;2022-08-14T23:47:41;3.42;;;2.38;;
41139;SDS011;26881;48.784;9.192;2022-08-14T23:53:17;3.28;;;2.30;;
41139;SDS011;26881;48.784;9.192;2022-08-14T23:59:02;5.93;;;2.55;;
